createdAt,value
2022-09-15T00:01:10.534Z,98242.23
2022-09-15T00:03:38.914Z,98241.84
2022-09-15T00:06:07.444Z,98242.88
2022-09-15T00:08:34.648Z,98245.61
2022-09-15T00:11:15.212Z,98247.58
2022-09-15T00:13:42.669Z,98243.60
2022-09-15T00:16:14.990Z,98240.20
2022-09-15T00:18:43.989Z,98233.13
2022-09-15T00:21:18.147Z,98230.65
2022-09-15T00:23:45.522Z,98225.69
2022-09-15T00:26:15.207Z,98224.69
2022-09-15T00:28:42.735Z,98221.87
2022-09-15T00:31:13.844Z,98224.45
2022-09-15T00:33:42.151Z,98225.85
2022-09-15T00:36:12.181Z,98227.92
2022-09-15T00:38:39.844Z,98229.16
2022-09-15T00:41:10.059Z,98233.63
2022-09-15T00:44:07.249Z,98234.30
2022-09-15T00:46:41.132Z,98230.70
2022-09-15T00:49:11.169Z,98226.16
2022-09-15T00:52:03.202Z,98220.19
2022-09-15T00:54:33.139Z,98217.80
2022-09-15T00:57:10.304Z,98218.02
2022-09-15T00:59:41.679Z,98216.22
2022-09-15T01:02:33.902Z,98220.77
2022-09-15T01:05:05.030Z,98222.18
2022-09-15T01:07:45.503Z,98220.49
2022-09-15T01:10:22.707Z,98218.61
2022-09-15T01:12:49.911Z,98218.60
2022-09-15T01:15:17.287Z,98213.31
2022-09-15T01:21:02.680Z,98205.50
2022-09-15T01:23:54.613Z,98201.14
2022-09-15T01:26:21.497Z,98196.41
2022-09-15T01:29:22.672Z,98193.83
2022-09-15T01:32:38.288Z,98187.02
2022-09-15T01:35:21.108Z,98186.10
2022-09-15T01:38:27.277Z,98186.77
2022-09-15T01:41:09.484Z,98184.19
2022-09-15T01:43:42.879Z,98184.02
2022-09-15T01:46:12.339Z,98185.53
2022-09-15T01:48:40.347Z,98179.02
2022-09-15T01:51:08.828Z,98164.63
2022-09-15T01:53:36.388Z,98166.13
2022-09-15T01:56:07.945Z,98164.74
2022-09-15T01:58:37.219Z,98158.56
2022-09-15T02:01:12.509Z,98157.88
2022-09-15T02:03:55.627Z,98159.80
2022-09-15T02:06:26.748Z,98160.48
2022-09-15T02:09:02.808Z,98165.98
2022-09-15T02:11:30.575Z,98166.45
2022-09-15T02:14:23.148Z,98166.89
2022-09-15T02:16:54.328Z,98166.77
2022-09-15T02:19:33.497Z,98166.60
2022-09-15T02:22:04.743Z,98174.70
2022-09-15T02:24:50.478Z,98168.59
2022-09-15T02:27:23.215Z,98162.80
2022-09-15T02:29:54.110Z,98158.16
2022-09-15T02:32:23.855Z,98160.30
2022-09-15T02:34:54.656Z,98163.04
2022-09-15T02:37:24.496Z,98164.82
2022-09-15T02:39:58.014Z,98167.58
2022-09-15T02:42:26.996Z,98164.71
2022-09-15T02:44:54.555Z,98167.04
2022-09-15T02:47:21.601Z,98161.56
2022-09-15T02:49:48.650Z,98161.69
2022-09-15T02:52:16.092Z,98158.77
2022-09-15T02:54:43.256Z,98155.27
2022-09-15T02:57:10.508Z,98154.85
2022-09-15T02:59:56.295Z,98149.21
2022-09-15T03:02:24.917Z,98146.03
2022-09-15T03:04:52.030Z,98144.30
2022-09-15T03:07:19.997Z,98148.09
2022-09-15T03:09:47.454Z,98148.09
2022-09-15T03:12:14.808Z,98146.67
2022-09-15T03:14:41.856Z,98147.18
2022-09-15T03:17:08.906Z,98142.35
2022-09-15T03:19:36.053Z,98135.05
2022-09-15T03:22:03.407Z,98125.05
2022-09-15T03:24:30.661Z,98119.13
2022-09-15T03:26:57.725Z,98113.57
2022-09-15T03:29:24.757Z,98110.77
2022-09-15T03:31:52.292Z,98109.75
2022-09-15T03:34:19.467Z,98106.09
2022-09-15T03:36:46.618Z,98102.21
2022-09-15T03:39:13.810Z,98101.08
2022-09-15T03:41:40.816Z,98100.16
2022-09-15T03:44:07.962Z,98104.77
2022-09-15T03:46:35.624Z,98107.99
2022-09-15T03:49:02.774Z,98105.06
2022-09-15T03:51:29.784Z,98101.42
2022-09-15T03:53:56.875Z,98106.34
2022-09-15T03:56:27.532Z,98110.02
2022-09-15T03:58:54.766Z,98112.16
2022-09-15T04:01:23.281Z,98110.77
2022-09-15T04:03:51.671Z,98110.77
2022-09-15T04:06:23.373Z,98105.64
2022-09-15T04:08:51.459Z,98110.05
2022-09-15T04:11:21.017Z,98109.52
2022-09-15T04:13:48.404Z,98107.63
2022-09-15T04:16:18.704Z,98110.55
2022-09-15T04:18:46.711Z,98109.86
2022-09-15T04:21:16.426Z,98108.05
2022-09-15T04:23:45.191Z,98117.45
2022-09-15T04:26:30.133Z,98125.68
2022-09-15T04:29:03.029Z,98130.41
2022-09-15T04:31:31.905Z,98139.02
2022-09-15T04:41:02.411Z,98106.79
2022-09-15T04:43:30.386Z,98105.41
2022-09-15T04:45:57.735Z,98103.52
2022-09-15T04:48:25.706Z,98091.63
2022-09-15T04:50:53.060Z,98077.02
2022-09-15T04:53:20.619Z,98074.45
2022-09-15T04:55:47.564Z,98082.84
2022-09-15T04:58:14.820Z,98077.32
2022-09-15T05:00:42.980Z,98080.63
2022-09-15T05:03:11.266Z,98084.54
2022-09-15T05:05:38.723Z,98092.11
2022-09-15T05:08:07.618Z,98086.02
2022-09-15T05:10:35.072Z,98085.82
2022-09-15T05:13:01.920Z,98083.02
2022-09-15T05:15:29.472Z,98085.04
2022-09-15T05:17:57.647Z,98082.92
2022-09-15T05:20:25.413Z,98080.31
2022-09-15T05:22:52.241Z,98079.13
2022-09-15T05:25:19.199Z,98080.00
2022-09-15T05:27:46.556Z,98075.84
2022-09-15T05:30:36.677Z,98065.41
2022-09-15T05:33:01.026Z,98056.70
2022-09-15T05:35:28.688Z,98057.84
2022-09-15T05:37:56.274Z,98061.56
2022-09-15T05:40:23.588Z,98063.36
2022-09-15T05:42:50.854Z,98064.86
2022-09-15T05:45:17.663Z,98062.99
2022-09-15T05:47:44.539Z,98066.40
2022-09-15T05:50:11.894Z,98068.16
2022-09-15T05:52:38.744Z,98073.98
2022-09-15T05:55:05.887Z,98076.36
2022-09-15T05:57:33.142Z,98080.08
2022-09-15T06:00:00.010Z,98082.15
2022-09-15T06:02:26.848Z,98088.13
2022-09-15T06:04:53.874Z,98088.94
2022-09-15T06:07:20.819Z,98090.44
2022-09-15T06:09:48.275Z,98091.70
2022-09-15T06:12:17.574Z,98088.84
2022-09-15T06:14:45.451Z,98089.02
2022-09-15T06:17:12.799Z,98091.22
2022-09-15T06:19:39.956Z,98089.11
2022-09-15T06:22:06.891Z,98086.02
2022-09-15T06:24:33.938Z,98085.30
2022-09-15T06:27:00.887Z,98080.80
2022-09-15T06:29:28.546Z,98074.23
2022-09-15T06:31:56.808Z,98067.13
2022-09-15T06:37:09.165Z,98070.77
2022-09-15T06:39:36.095Z,98066.79
2022-09-15T06:42:05.830Z,98070.19
2022-09-15T06:44:35.204Z,98070.73
2022-09-15T06:47:03.684Z,98071.09
2022-09-15T06:49:31.346Z,98066.20
2022-09-15T06:52:01.465Z,98063.32
2022-09-15T06:54:28.616Z,98057.91
2022-09-15T06:56:55.664Z,98061.62
2022-09-15T06:59:24.246Z,98054.17
2022-09-15T07:01:54.853Z,98053.84
2022-09-15T07:04:22.334Z,98053.93
2022-09-15T07:06:50.023Z,98049.65
2022-09-15T07:09:17.145Z,98045.52
2022-09-15T07:11:44.603Z,98047.26
2022-09-15T07:14:12.161Z,98051.88
2022-09-15T07:16:39.896Z,98050.99
2022-09-15T07:19:07.182Z,98053.22
2022-09-15T07:21:35.149Z,98056.54
2022-09-15T07:24:06.411Z,98058.69
2022-09-15T07:26:34.507Z,98050.93
2022-09-15T07:29:05.407Z,98046.64
2022-09-15T07:31:34.748Z,98047.96
2022-09-15T07:34:02.776Z,98048.18
2022-09-15T07:36:30.744Z,98047.71
2022-09-15T07:38:58.200Z,98047.11
2022-09-15T07:41:29.959Z,98047.32
2022-09-15T07:43:59.339Z,98048.66
2022-09-15T07:46:31.532Z,98048.52
2022-09-15T07:49:00.115Z,98043.95
2022-09-15T07:51:27.467Z,98038.72
2022-09-15T07:53:54.824Z,98033.98
2022-09-15T07:56:24.022Z,98033.05
2022-09-15T07:58:51.348Z,98031.10
2022-09-15T08:01:20.022Z,98031.90
2022-09-15T08:03:49.465Z,98029.34
2022-09-15T08:06:20.982Z,98029.61
2022-09-15T08:08:48.578Z,98029.89
2022-09-15T08:11:19.721Z,98031.84
2022-09-15T08:13:49.123Z,98032.04
2022-09-15T08:16:22.794Z,98033.27
2022-09-15T08:18:53.063Z,98034.70
2022-09-15T08:21:21.734Z,98028.52
2022-09-15T08:23:55.280Z,98024.05
2022-09-15T08:26:23.258Z,98026.59
2022-09-15T08:28:50.252Z,98027.73
2022-09-15T08:31:17.868Z,98027.85
2022-09-15T08:33:51.204Z,98028.09
2022-09-15T08:36:18.154Z,98032.06
2022-09-15T08:38:46.223Z,98030.23
2022-09-15T08:41:13.677Z,98031.76
2022-09-15T08:44:10.525Z,98032.82
2022-09-15T08:46:49.891Z,98032.64
2022-09-15T08:49:47.501Z,98026.67
2022-09-15T08:52:32.598Z,98022.60
2022-09-15T08:55:05.581Z,98021.38
2022-09-15T08:57:32.833Z,98017.12
2022-09-15T08:59:59.781Z,98016.15
2022-09-15T09:02:34.827Z,98021.04
2022-09-15T09:05:16.093Z,98023.23
2022-09-15T09:07:48.943Z,98025.61
2022-09-15T09:10:30.696Z,98028.98
2022-09-15T09:13:35.262Z,98026.95
2022-09-15T09:16:25.282Z,98025.89
2022-09-15T09:19:19.676Z,98026.06
2022-09-15T09:21:53.142Z,98024.37
2022-09-15T09:24:34.886Z,98022.25
2022-09-15T09:27:02.124Z,98018.48
2022-09-15T09:29:39.093Z,98010.08
2022-09-15T09:32:19.808Z,98009.08
2022-09-15T09:34:54.116Z,98005.74
2022-09-15T09:37:21.537Z,98005.33
2022-09-15T09:39:48.733Z,98004.74
2022-09-15T09:42:18.190Z,98007.40
2022-09-15T09:44:46.774Z,98005.10
2022-09-15T09:47:14.939Z,98004.40
2022-09-15T09:49:49.054Z,98006.56
2022-09-15T09:52:33.698Z,98009.52
2022-09-15T09:55:15.941Z,98016.27
2022-09-15T09:57:43.279Z,98022.27
2022-09-15T10:00:34.082Z,98026.36
2022-09-15T10:03:15.994Z,98021.84
2022-09-15T10:05:44.095Z,98018.60
2022-09-15T10:08:19.495Z,98015.36
2022-09-15T10:10:55.247Z,98017.23
2022-09-15T10:13:22.260Z,98021.86
2022-09-15T10:15:56.106Z,98024.39
2022-09-15T10:18:37.362Z,98027.73
2022-09-15T10:21:07.346Z,98020.45
2022-09-15T10:23:34.551Z,98020.95
2022-09-15T10:26:33.669Z,98016.08
2022-09-15T10:29:12.264Z,98014.85
2022-09-15T10:31:39.449Z,98007.38
2022-09-15T10:34:25.992Z,98005.17
2022-09-15T10:37:24.511Z,98002.89
2022-09-15T10:39:54.387Z,98006.05
2022-09-15T10:42:42.520Z,98003.96
2022-09-15T10:45:18.168Z,98001.71
2022-09-15T10:48:02.653Z,97997.83
2022-09-15T10:50:44.562Z,97997.80
2022-09-15T10:53:45.683Z,97996.96
2022-09-15T10:56:24.718Z,97992.59
2022-09-15T10:58:51.531Z,97999.98
2022-09-15T11:01:27.876Z,98000.18
2022-09-15T11:04:22.860Z,97999.08
2022-09-15T11:06:49.895Z,97996.74
2022-09-15T11:09:42.384Z,97990.74
2022-09-15T11:12:40.817Z,97990.06
2022-09-15T11:15:19.746Z,97992.52
2022-09-15T11:17:59.189Z,97984.71
2022-09-15T11:20:43.294Z,97984.27
2022-09-15T11:23:14.925Z,97982.96
2022-09-15T11:25:43.895Z,97983.69
2022-09-15T11:28:21.250Z,97980.23
2022-09-15T11:31:16.406Z,97980.52
2022-09-15T11:33:54.672Z,97977.05
2022-09-15T11:37:00.497Z,97973.73
2022-09-15T11:39:34.656Z,97972.91
2022-09-15T11:42:05.696Z,97970.67
2022-09-15T11:44:35.099Z,97968.83
2022-09-15T11:47:29.972Z,97964.66
2022-09-15T11:50:11.487Z,97957.44
2022-09-15T11:52:42.629Z,97950.16
2022-09-15T11:55:23.400Z,97953.45
2022-09-15T11:58:09.287Z,97940.96
2022-09-15T12:00:48.321Z,97936.84
2022-09-15T12:03:35.638Z,97935.04
2022-09-15T12:06:27.775Z,97934.73
2022-09-15T12:09:00.883Z,97935.75
2022-09-15T12:11:34.892Z,97933.34
2022-09-15T12:14:04.789Z,97926.44
2022-09-15T12:16:34.501Z,97925.86
2022-09-15T12:19:36.038Z,97925.95
2022-09-15T12:22:28.560Z,97931.61
2022-09-15T12:25:15.154Z,97936.49
2022-09-15T12:27:42.151Z,97936.30
2022-09-15T12:30:39.919Z,97937.84
2022-09-15T12:33:41.732Z,97930.27
2022-09-15T12:36:32.623Z,97931.58
2022-09-15T12:39:02.342Z,97932.52
2022-09-15T12:41:30.064Z,97928.40
2022-09-15T12:44:04.504Z,97926.86
2022-09-15T12:46:32.605Z,97926.05
2022-09-15T12:49:02.775Z,97924.41
2022-09-15T12:51:30.309Z,97926.05
2022-09-15T12:54:06.901Z,97924.77
2022-09-15T12:56:34.797Z,97929.56
2022-09-15T12:59:14.518Z,97929.55
2022-09-15T13:01:49.154Z,97930.81
2022-09-15T13:04:45.111Z,97934.95
2022-09-15T13:07:15.013Z,97928.08
2022-09-15T13:10:06.794Z,97929.96
2022-09-15T13:12:38.207Z,97928.27
2022-09-15T13:15:14.140Z,97929.86
2022-09-15T13:17:45.161Z,97927.23
2022-09-15T13:20:22.984Z,97933.05
2022-09-15T13:22:55.809Z,97927.23
2022-09-15T13:25:28.568Z,97921.52
2022-09-15T13:28:00.691Z,97917.83
2022-09-15T13:30:55.630Z,97909.95
2022-09-15T13:33:22.447Z,97916.83
2022-09-15T13:35:51.098Z,97913.50
2022-09-15T13:38:39.226Z,97915.95
2022-09-15T13:41:14.831Z,97914.02
2022-09-15T13:44:06.967Z,97915.72
2022-09-15T13:46:59.694Z,97911.49
2022-09-15T13:50:04.833Z,97905.10
2022-09-15T13:52:49.800Z,97898.85
2022-09-15T13:55:22.678Z,97899.54
2022-09-15T14:01:01.659Z,97906.89
2022-09-15T14:03:47.665Z,97904.27
2022-09-15T14:06:18.964Z,97904.29
2022-09-15T14:08:51.689Z,97900.39
2022-09-15T14:11:27.914Z,97901.79
2022-09-15T14:13:57.112Z,97900.59
2022-09-15T14:16:27.266Z,97892.40
2022-09-15T14:18:57.334Z,97888.11
2022-09-15T14:21:27.472Z,97885.57
2022-09-15T14:23:57.712Z,97890.17
2022-09-15T14:26:28.664Z,97887.49
2022-09-15T14:29:01.936Z,97887.91
2022-09-15T14:31:38.449Z,97882.29
2022-09-15T14:34:14.800Z,97880.09
2022-09-15T14:36:42.427Z,97876.08
2022-09-15T14:39:23.033Z,97876.91
2022-09-15T14:41:50.492Z,97876.38
2022-09-15T14:47:27.938Z,97872.19
2022-09-15T14:50:19.286Z,97873.17
2022-09-15T14:53:02.811Z,97867.90
2022-09-15T14:55:58.727Z,97859.57
2022-09-15T14:58:33.538Z,97850.02
2022-09-15T15:01:04.976Z,97847.29
2022-09-15T15:03:31.941Z,97842.36
2022-09-15T15:06:25.359Z,97849.91
2022-09-15T15:09:01.203Z,97851.17
2022-09-15T15:11:31.235Z,97844.14
2022-09-15T15:13:58.900Z,97841.87
2022-09-15T15:16:30.297Z,97842.66
2022-09-15T15:18:57.812Z,97844.80
2022-09-15T15:21:44.752Z,97845.49
2022-09-15T15:24:14.663Z,97844.42
2022-09-15T15:26:44.706Z,97848.88
2022-09-15T15:29:39.784Z,97847.70
2022-09-15T15:32:12.899Z,97842.82
2022-09-15T15:34:46.711Z,97846.55
2022-09-15T15:37:33.336Z,97845.42
2022-09-15T15:40:04.655Z,97842.28
2022-09-15T15:42:31.913Z,97838.33
2022-09-15T15:45:02.336Z,97841.10
2022-09-15T15:47:36.145Z,97837.70
2022-09-15T15:50:15.269Z,97842.08
2022-09-15T15:52:43.445Z,97833.95
2022-09-15T15:55:16.453Z,97834.06
2022-09-15T15:57:44.055Z,97828.20
2022-09-15T16:00:22.068Z,97826.59
2022-09-15T16:02:51.386Z,97819.05
2022-09-15T16:05:26.045Z,97820.54
2022-09-15T16:07:55.655Z,97819.75
2022-09-15T16:10:29.469Z,97813.14
2022-09-15T16:12:57.787Z,97809.70
2022-09-15T16:15:24.874Z,97805.06
2022-09-15T16:17:52.252Z,97806.57
2022-09-15T16:20:19.471Z,97802.70
2022-09-15T16:22:46.322Z,97802.07
2022-09-15T16:25:22.658Z,97805.73
2022-09-15T16:27:49.457Z,97807.30
2022-09-15T16:30:16.487Z,97810.86
2022-09-15T16:32:43.511Z,97807.60
2022-09-15T16:35:29.186Z,97805.13
2022-09-15T16:37:56.965Z,97801.13
2022-09-15T16:40:24.474Z,97802.61
2022-09-15T16:42:51.763Z,97801.06
2022-09-15T16:45:38.191Z,97801.09
2022-09-15T16:48:08.889Z,97792.63
2022-09-15T16:50:37.793Z,97799.03
2022-09-15T16:53:14.195Z,97795.73
2022-09-15T16:55:47.252Z,97792.63
2022-09-15T16:58:16.812Z,97795.18
2022-09-15T17:00:47.339Z,97792.13
2022-09-15T17:03:17.062Z,97791.52
2022-09-15T17:05:48.749Z,97791.02
2022-09-15T17:08:17.958Z,97790.84
2022-09-15T17:10:46.940Z,97786.84
2022-09-15T17:13:20.158Z,97786.31
2022-09-15T17:15:48.228Z,97787.51
2022-09-15T17:18:15.876Z,97784.04
2022-09-15T17:20:44.820Z,97789.38
2022-09-15T17:23:23.608Z,97788.98
2022-09-15T17:25:52.799Z,97784.25
2022-09-15T17:28:22.897Z,97782.08
2022-09-15T17:30:52.278Z,97776.48
2022-09-15T17:33:20.133Z,97775.98
2022-09-15T17:35:47.795Z,97776.61
2022-09-15T17:38:15.818Z,97772.21
2022-09-15T17:40:43.202Z,97772.59
2022-09-15T17:43:15.567Z,97774.63
2022-09-15T17:45:43.431Z,97777.61
2022-09-15T17:48:10.778Z,97770.46
2022-09-15T17:50:39.459Z,97771.93
2022-09-15T17:53:15.761Z,97773.05
2022-09-15T17:55:43.196Z,97776.27
2022-09-15T17:58:11.095Z,97767.52
2022-09-15T18:00:41.840Z,97769.02
2022-09-15T18:03:20.515Z,97770.37
2022-09-15T18:05:47.961Z,97765.68
2022-09-15T18:08:16.429Z,97762.34
2022-09-15T18:10:44.125Z,97757.73
2022-09-15T18:13:17.807Z,97753.84
2022-09-15T18:15:45.452Z,97748.30
2022-09-15T18:18:15.950Z,97747.30
2022-09-15T18:20:43.419Z,97748.02
2022-09-15T18:23:13.862Z,97737.06
2022-09-15T18:25:41.714Z,97743.53
2022-09-15T18:28:09.440Z,97742.69
2022-09-15T18:30:41.874Z,97741.02
2022-09-15T18:33:22.002Z,97742.13
2022-09-15T18:35:53.574Z,97744.34
2022-09-15T18:38:21.363Z,97747.92
2022-09-15T18:40:54.695Z,97752.19
2022-09-15T18:43:24.605Z,97750.97
2022-09-15T18:45:54.445Z,97747.48
2022-09-15T18:48:21.364Z,97745.80
2022-09-15T18:50:48.178Z,97740.85
2022-09-15T18:53:15.424Z,97737.07
2022-09-15T18:55:43.071Z,97747.54
2022-09-15T18:58:10.821Z,97757.25
2022-09-15T19:00:38.032Z,97751.56
2022-09-15T19:03:13.439Z,97746.07
2022-09-15T19:05:40.918Z,97748.79
2022-09-15T19:08:08.623Z,97746.09
2022-09-15T19:10:37.826Z,97746.70
2022-09-15T19:13:05.477Z,97739.34
2022-09-15T19:15:35.525Z,97734.63
2022-09-15T19:18:02.754Z,97735.08
2022-09-15T19:20:30.483Z,97736.27
2022-09-15T19:22:57.976Z,97735.73
2022-09-15T19:25:24.798Z,97733.60
2022-09-15T19:27:51.790Z,97736.73
2022-09-15T19:30:18.767Z,97734.51
2022-09-15T19:32:45.798Z,97737.42
2022-09-15T19:35:12.817Z,97733.92
2022-09-15T19:37:41.478Z,97729.80
2022-09-15T19:40:11.695Z,97726.36
2022-09-15T19:42:40.822Z,97722.68
2022-09-15T19:45:10.666Z,97720.20
2022-09-15T19:47:38.778Z,97718.36
2022-09-15T19:50:07.454Z,97712.15
2022-09-15T19:52:34.796Z,97709.02
2022-09-15T19:55:04.472Z,97712.09
2022-09-15T19:57:31.331Z,97711.20
2022-09-15T19:59:58.428Z,97714.20
2022-09-15T20:02:25.458Z,97714.81
2022-09-15T20:07:37.723Z,97714.64
2022-09-15T20:10:05.841Z,97715.13
2022-09-15T20:12:32.763Z,97717.59
2022-09-15T20:15:00.485Z,97719.28
2022-09-15T20:17:27.817Z,97721.00
2022-09-15T20:19:54.923Z,97723.67
2022-09-15T20:22:22.440Z,97727.14
2022-09-15T20:24:49.680Z,97731.08
2022-09-15T20:27:16.560Z,97732.56
2022-09-15T20:29:43.448Z,97731.31
2022-09-15T20:34:56.239Z,97732.34
2022-09-15T20:37:23.292Z,97729.58
2022-09-15T20:39:50.811Z,97724.23
2022-09-15T20:42:18.131Z,97721.23
2022-09-15T20:44:45.107Z,97720.24
2022-09-15T20:47:12.056Z,97717.91
2022-09-15T20:49:38.871Z,97719.30
2022-09-15T20:52:06.916Z,97720.87
2022-09-15T20:54:34.103Z,97720.63
2022-09-15T20:57:01.120Z,97717.48
2022-09-15T20:59:28.885Z,97717.45
2022-09-15T21:01:56.206Z,97716.45
2022-09-15T21:04:23.820Z,97717.20
2022-09-15T21:06:50.832Z,97722.89
2022-09-15T21:09:17.760Z,97720.95
2022-09-15T21:11:45.751Z,97720.25
2022-09-15T21:14:14.942Z,97718.02
2022-09-15T21:16:44.428Z,97719.48
2022-09-15T21:19:12.196Z,97721.33
2022-09-15T21:21:39.294Z,97719.20
2022-09-15T21:24:08.236Z,97725.13
2022-09-15T21:26:56.924Z,97725.81
2022-09-15T21:29:24.361Z,97728.02
2022-09-15T21:31:51.566Z,97731.45
2022-09-15T21:34:19.631Z,97736.91
2022-09-15T21:36:46.815Z,97746.99
2022-09-15T21:39:13.736Z,97747.63
2022-09-15T21:41:41.015Z,97746.42
2022-09-15T21:44:08.811Z,97741.02
2022-09-15T21:46:36.520Z,97741.06
2022-09-15T21:49:03.362Z,97743.86
2022-09-15T21:51:30.366Z,97747.79
2022-09-15T21:53:58.967Z,97755.59
2022-09-15T21:56:27.341Z,97754.66
2022-09-15T21:58:54.835Z,97753.89
2022-09-15T22:01:25.167Z,97757.02
2022-09-15T22:03:55.372Z,97753.27
2022-09-15T22:06:29.648Z,97753.35
2022-09-15T22:09:06.288Z,97747.72
2022-09-15T22:11:34.767Z,97749.71
2022-09-15T22:14:03.318Z,97747.63
2022-09-15T22:16:30.290Z,97752.55
2022-09-15T22:18:57.231Z,97757.90
2022-09-15T22:21:26.716Z,97767.14
2022-09-15T22:23:55.762Z,97769.59
2022-09-15T22:26:28.116Z,97771.08
2022-09-15T22:28:55.989Z,97772.31
2022-09-15T22:31:24.199Z,97775.21
2022-09-15T22:33:52.029Z,97774.08
2022-09-15T22:36:28.873Z,97769.44
2022-09-15T22:39:04.538Z,97772.19
2022-09-15T22:41:35.806Z,97766.86
2022-09-15T22:44:04.118Z,97756.15
2022-09-15T22:46:33.275Z,97747.10
2022-09-15T22:49:00.981Z,97751.06
2022-09-15T22:51:28.324Z,97752.65
2022-09-15T22:53:56.362Z,97751.98
2022-09-15T22:56:25.460Z,97750.33
2022-09-15T22:58:52.427Z,97751.45
2022-09-15T23:01:22.603Z,97753.86
2022-09-15T23:03:55.130Z,97752.04
2022-09-15T23:06:23.806Z,97752.98
2022-09-15T23:08:55.939Z,97762.25
2022-09-15T23:11:25.327Z,97776.70
2022-09-15T23:13:54.173Z,97777.57
2022-09-15T23:16:22.734Z,97781.12
2022-09-15T23:18:51.857Z,97784.38
2022-09-15T23:21:19.191Z,97785.73
2022-09-15T23:23:48.221Z,97790.95
2022-09-15T23:26:20.272Z,97801.20
2022-09-15T23:28:48.919Z,97809.34
2022-09-15T23:31:16.904Z,97810.88
2022-09-15T23:33:44.026Z,97805.77
2022-09-15T23:36:14.370Z,97796.58
2022-09-15T23:38:43.875Z,97798.64
2022-09-15T23:41:12.171Z,97800.69
2022-09-15T23:43:39.405Z,97799.55
2022-09-15T23:46:07.357Z,97802.91
2022-09-15T23:48:34.954Z,97808.67
2022-09-15T23:51:02.488Z,97808.58
2022-09-15T23:53:29.476Z,97810.48
2022-09-15T23:55:56.266Z,97817.88
2022-09-15T23:58:23.362Z,97812.41
